LIPQ/TRS METAR and TAF weather

Enter ICAO airport designator
Station Type Date Time Source
LIPQ METAR 2022/12/05 14:20 UTC NOAA

LIPQ 051420Z AUTO 14005KT 9999 -RA OVC018/// 13/12 Q1016


Station Type Date Time Source
LIPQ Decoded METAR 2022/12/05 14:20 UTC NOAA

Ronchi Dei Legionari, Italy (LIPQ) 45-49N 013-29E 12M
Dec 05, 2022 - 09:20 AM EST / 2022.12.05 1420 UTC
Wind: from the SE (140 degrees) at 6 MPH (5 KT):0
Visibility: greater than 7 mile(s):0
Sky conditions: overcast
Weather: light rain
Temperature: 55 F (13 C)
Dew Point: 53 F (12 C)
Relative Humidity: 93%
Pressure (altimeter): 30.00 in. Hg (1016 hPa)
ob: LIPQ 051420Z AUTO 14005KT 9999 -RA OVC018/// 13/12 Q1016
cycle: 14

Station Type Date Time Source
LIPQ TAF 2022/12/05 12:30 UTC NOAA

TAF LIPQ 051100Z 0512/0612 VRB05KT 8000 BKN020
TEMPO 0512/0521 3000 SHRA
BECMG 0522/0524 4000 BR PROB40
TEMPO 0602/0608 0800 FG

Example: see airport list